Time;durP1;ratioP1;P1;durP2;ratioP2;P2;SDS_P1;SDS_P2;PMS_P1;PMS_P2;Temp;Humidity;BMP_temperature;BMP_pressure;BME280_temperature;BME280_humidity;BME280_pressure;Samples;Min_cycle;Max_cycle;Signal;HPM_P1;HPM_P2
2022/03/11 00:01:43;;;;;;;22.27;12.23;;;;;;;-2.67;56.13;95978.31;5031377;28;20033;-61
2022/03/11 00:04:08;;;;;;;21.30;13.25;;;;;;;-2.82;56.43;95976.56;5033238;28;20099;-66
2022/03/11 00:06:34;;;;;;;19.58;12.32;;;;;;;-2.93;56.48;95974.84;5050639;28;20037;-62
2022/03/11 00:09:01;;;;;;;17.88;11.07;;;;;;;-3.06;56.27;95957.09;5049993;28;20021;-59
2022/03/11 00:11:26;;;;;;;16.15;9.80;;;;;;;-2.96;56.10;95976.50;5051157;28;20037;-62
2022/03/11 00:13:52;;;;;;;12.68;8.43;;;;;;;-2.89;55.74;95982.41;5050668;28;20051;-57
2022/03/11 00:16:17;;;;;;;15.38;9.27;;;;;;;-2.82;55.88;95974.06;5050337;28;20071;-59
2022/03/11 00:18:43;;;;;;;15.32;9.45;;;;;;;-3.31;56.25;95923.34;5049474;28;20043;-58
2022/03/11 00:21:12;;;;;;;14.52;8.70;;;;;;;-2.99;56.65;95975.63;5050888;28;20033;-60
2022/03/11 00:23:42;;;;;;;15.93;9.20;;;;;;;-3.00;56.59;95971.41;5050973;28;20503;-61
2022/03/11 00:26:08;;;;;;;17.83;9.93;;;;;;;-3.54;56.75;95876.13;5050552;28;20032;-58
2022/03/11 00:28:33;;;;;;;14.07;9.35;;;;;;;-3.13;57.18;95968.00;5050602;28;20021;-58
2022/03/11 00:30:59;;;;;;;16.20;10.90;;;;;;;-3.27;57.41;95924.19;5050587;28;20504;-58
2022/03/11 00:33:24;;;;;;;15.57;9.40;;;;;;;-2.99;57.12;95958.81;5050761;28;20029;-61
2022/03/11 00:35:50;;;;;;;16.05;9.38;;;;;;;-3.04;57.17;95937.75;5050368;28;20102;-66
2022/03/11 00:38:15;;;;;;;15.82;9.73;;;;;;;-2.96;57.07;95945.38;5050285;28;20036;-58
2022/03/11 00:40:41;;;;;;;17.13;9.95;;;;;;;-2.86;57.42;95954.66;5050721;28;20029;-60
2022/03/11 00:43:06;;;;;;;20.95;12.55;;;;;;;-2.78;57.83;95953.00;5050385;28;20759;-58
2022/03/11 00:45:31;;;;;;;19.75;12.27;;;;;;;-2.82;57.92;95943.75;5050365;28;20029;-58
2022/03/11 00:47:57;;;;;;;16.80;10.43;;;;;;;-2.99;58.18;95933.56;5050346;28;20032;-58
2022/03/11 00:50:23;;;;;;;19.85;11.25;;;;;;;-2.97;58.48;95949.59;5050258;28;20122;-58
2022/03/11 00:52:49;;;;;;;19.33;11.48;;;;;;;-3.01;58.80;95959.66;5050348;28;20072;-60
2022/03/11 00:55:15;;;;;;;19.45;12.60;;;;;;;-3.08;58.88;95952.88;5050209;28;20041;-61
2022/03/11 00:57:40;;;;;;;21.33;11.18;;;;;;;-3.24;59.89;95944.41;5050039;28;20029;-60
2022/03/11 01:00:07;;;;;;;19.15;12.18;;;;;;;-3.41;60.15;95931.66;5049506;28;20036;-61
2022/03/11 01:02:38;;;;;;;20.40;12.02;;;;;;;-3.41;60.28;95946.81;5049343;28;20029;-58
2022/03/11 01:05:06;;;;;;;17.48;11.57;;;;;;;-3.43;60.60;95956.03;5049757;28;20075;-57
2022/03/11 01:07:33;;;;;;;21.38;12.90;;;;;;;-4.41;60.63;95793.28;5049942;28;20059;-58
2022/03/11 01:09:59;;;;;;;16.30;11.65;;;;;;;-3.46;60.63;95949.31;5049626;28;20025;-61
2022/03/11 01:12:25;;;;;;;18.42;11.60;;;;;;;-3.46;60.64;95954.38;5049514;28;20043;-59
2022/03/11 01:14:50;;;;;;;25.10;13.90;;;;;;;-3.54;61.54;95956.00;5048925;28;20528;-59
2022/03/11 01:17:16;;;;;;;19.23;13.20;;;;;;;-3.61;61.69;95945.00;5049667;28;20029;-59
2022/03/11 01:19:41;;;;;;;22.33;14.13;;;;;;;-3.69;61.43;95926.44;5049545;28;20104;-63
2022/03/11 01:22:07;;;;;;;24.00;14.30;;;;;;;-3.62;61.40;95933.25;5049560;28;20021;-60
2022/03/11 01:24:33;;;;;;;24.42;13.98;;;;;;;-3.55;61.32;95954.28;5049293;28;20037;-58
2022/03/11 01:26:59;;;;;;;23.60;14.10;;;;;;;-3.47;61.26;95964.44;5048120;28;20021;-61
2022/03/11 01:29:24;;;;;;;21.67;14.60;;;;;;;-3.58;61.26;95966.88;5049380;28;20025;-57
2022/03/11 01:31:53;;;;;;;23.00;13.95;;;;;;;-3.57;61.09;95969.41;5049275;28;20506;-61
2022/03/11 01:34:20;;;;;;;23.67;14.00;;;;;;;-3.78;60.83;95936.47;5049147;28;20052;-57
2022/03/11 01:36:46;;;;;;;24.35;14.65;;;;;;;-3.65;60.57;95955.91;5049342;28;20017;-61
2022/03/11 01:39:11;;;;;;;22.95;14.60;;;;;;;-3.59;61.18;95952.56;5048851;28;20021;-57
2022/03/11 01:41:37;;;;;;;25.13;14.57;;;;;;;-3.99;60.96;95882.56;5049172;28;20048;-57
2022/03/11 01:44:09;;;;;;;22.23;14.25;;;;;;;-3.54;61.44;95949.25;5048994;28;20090;-58
2022/03/11 01:46:35;;;;;;;23.92;14.40;;;;;;;-3.74;61.69;95936.53;5049020;28;20488;-58
2022/03/11 01:49:03;;;;;;;20.02;13.60;;;;;;;-3.68;61.91;95955.88;5049082;28;20025;-61
2022/03/11 01:51:31;;;;;;;25.00;15.48;;;;;;;-3.82;61.87;95942.31;5048572;28;20100;-59
2022/03/11 01:53:57;;;;;;;24.13;15.15;;;;;;;-3.74;62.14;95945.75;5049035;28;20090;-58
2022/03/11 01:56:24;;;;;;;29.60;16.75;;;;;;;-3.72;61.70;95951.66;5048999;28;20017;-59
2022/03/11 01:58:51;;;;;;;26.73;17.75;;;;;;;-4.07;62.42;95915.28;5048844;28;20029;-59
2022/03/11 02:01:18;;;;;;;29.10;17.10;;;;;;;-4.00;62.46;95931.28;5048641;28;20032;-59
2022/03/11 02:03:44;;;;;;;27.55;17.00;;;;;;;-3.99;62.87;95944.72;5048208;28;20037;-61
2022/03/11 02:06:13;;;;;;;28.55;16.98;;;;;;;-4.14;62.84;95923.59;5048724;28;20029;-61
2022/03/11 02:08:39;;;;;;;34.92;19.17;;;;;;;-3.78;62.31;95959.16;5048706;28;20087;-58
2022/03/11 02:11:05;;;;;;;24.60;14.02;;;;;;;-3.64;58.99;95947.53;5048453;28;20040;-59
2022/03/11 02:13:48;;;;;;;20.80;12.65;;;;;;;-3.62;57.51;95942.44;5048298;28;20071;-56
2022/03/11 02:16:22;;;;;;;19.17;12.48;;;;;;;-3.76;57.17;95945.72;5048350;28;20036;-60
2022/03/11 02:18:48;;;;;;;18.33;11.30;;;;;;;-3.75;57.05;95949.09;5048270;28;20028;-59
2022/03/11 02:21:17;;;;;;;19.77;11.32;;;;;;;-4.00;56.89;95923.72;5048586;28;20035;-66
2022/03/11 02:23:50;;;;;;;18.38;11.98;;;;;;;-3.93;57.72;95955.69;5048203;28;20013;-61
2022/03/11 02:26:17;;;;;;;16.50;10.80;;;;;;;-4.09;58.29;95946.31;5047797;28;20037;-64
2022/03/11 02:28:44;;;;;;;18.08;11.68;;;;;;;-4.10;58.91;95944.59;5048554;28;20136;-59
2022/03/11 02:31:10;;;;;;;19.00;11.60;;;;;;;-4.20;58.67;95930.25;5048610;28;20032;-60
2022/03/11 02:33:36;;;;;;;20.92;12.10;;;;;;;-4.26;58.58;95933.56;5048592;28;20033;-59
2022/03/11 02:36:02;;;;;;;16.73;11.60;;;;;;;-4.06;59.26;95972.38;5048278;28;20481;-58
2022/03/11 02:38:27;;;;;;;16.70;11.63;;;;;;;-4.11;59.28;95963.09;5047744;28;20025;-60
2022/03/11 02:40:54;;;;;;;16.38;10.98;;;;;;;-4.05;58.91;95965.63;5048291;28;20032;-59
2022/03/11 02:43:19;;;;;;;22.58;12.30;;;;;;;-4.12;58.78;95968.94;5046906;28;20491;-60
2022/03/11 02:45:45;;;;;;;17.08;10.85;;;;;;;-4.47;59.10;95932.53;5048353;28;20090;-60
2022/03/11 02:48:11;;;;;;;15.63;10.98;;;;;;;-4.21;58.87;95972.22;5048209;28;20049;-61
2022/03/11 02:50:37;;;;;;;17.77;10.85;;;;;;;-4.61;59.01;95918.94;5047919;28;20437;-60
2022/03/11 02:53:02;;;;;;;13.85;9.57;;;;;;;-4.22;57.84;95975.56;5047925;28;20036;-56
2022/03/11 02:55:28;;;;;;;16.33;9.80;;;;;;;-4.28;57.63;95978.88;5047847;28;20114;-58
2022/03/11 02:57:53;;;;;;;14.63;9.05;;;;;;;-4.51;57.68;95977.78;5047835;28;20029;-61
2022/03/11 03:00:19;;;;;;;15.25;9.70;;;;;;;-4.64;58.79;95985.22;5048020;28;20032;-61
2022/03/11 03:02:44;;;;;;;14.25;10.18;;;;;;;-4.67;58.98;95980.13;5047601;28;20108;-61
2022/03/11 03:05:10;;;;;;;15.68;10.40;;;;;;;-5.03;59.65;95943.66;5048040;28;20033;-59
2022/03/11 03:07:36;;;;;;;15.07;10.13;;;;;;;-4.94;60.00;95963.03;5047979;28;20555;-59
2022/03/11 03:10:01;;;;;;;17.35;11.02;;;;;;;-4.90;59.39;95979.00;5047849;28;20056;-59
2022/03/11 03:12:27;;;;;;;17.85;12.25;;;;;;;-4.96;60.07;95968.88;5047824;28;20120;-61
2022/03/11 03:14:53;;;;;;;19.15;11.70;;;;;;;-4.88;59.75;95969.81;5045908;28;20528;-57
2022/03/11 03:17:21;;;;;;;23.60;13.38;;;;;;;-4.84;59.37;95974.06;5047765;28;20058;-59
2022/03/11 03:19:47;;;;;;;16.88;10.60;;;;;;;-4.70;59.31;95982.63;5047800;28;20134;-60
2022/03/11 03:22:13;;;;;;;15.60;10.68;;;;;;;-4.68;58.71;95986.00;5047629;28;20037;-58
2022/03/11 03:24:38;;;;;;;17.50;10.75;;;;;;;-4.71;58.22;95985.94;5047531;28;20037;-57
2022/03/11 03:27:04;;;;;;;16.42;10.52;;;;;;;-4.74;58.98;95987.59;5047353;28;20036;-63
2022/03/11 03:29:30;;;;;;;16.23;9.15;;;;;;;-4.75;58.12;95989.28;5047983;28;20435;-57
2022/03/11 03:31:58;;;;;;;15.57;9.27;;;;;;;-4.76;59.14;95990.09;5047817;28;20452;-59
2022/03/11 03:34:35;;;;;;;15.98;10.63;;;;;;;-4.71;58.64;95985.94;5047691;28;20106;-60
2022/03/11 03:37:07;;;;;;;18.15;10.82;;;;;;;-4.71;60.01;95985.94;5047163;28;20541;-58
2022/03/11 03:39:32;;;;;;;;;;;;;;;-4.73;60.19;95990.13;5047645;28;20385;-56
2022/03/11 03:41:58;;;;;;;21.25;12.25;;;;;;;-4.65;60.71;95990.22;5047535;28;19913;-58
2022/03/11 03:44:23;;;;;;;20.17;12.25;;;;;;;-4.60;61.48;95990.28;5047573;28;20037;-60
2022/03/11 03:46:49;;;;;;;17.85;9.63;;;;;;;-4.52;59.75;95992.06;5047347;28;20017;-57
2022/03/11 03:49:15;;;;;;;13.02;9.27;;;;;;;-4.48;59.32;95985.38;5047289;28;20040;-59
2022/03/11 03:51:41;;;;;;;15.43;10.30;;;;;;;-4.46;59.00;95986.22;5050370;28;20025;-60
2022/03/11 03:54:10;;;;;;;22.73;14.52;;;;;;;-4.56;60.99;95980.25;5050988;28;20533;-58
2022/03/11 03:56:37;;;;;;;25.38;16.35;;;;;;;-4.92;62.39;95930.34;5051100;28;20075;-60
2022/03/11 03:59:07;;;;;;;23.08;16.33;;;;;;;-4.67;62.53;95979.31;5051146;28;20052;-58
2022/03/11 04:01:34;;;;;;;25.52;16.50;;;;;;;-4.71;62.47;95993.50;5051164;28;20598;-58
2022/03/11 04:04:00;;;;;;;23.73;14.48;;;;;;;-4.70;61.79;95994.38;5050847;28;20025;-56
2022/03/11 04:06:26;;;;;;;22.73;14.65;;;;;;;-4.67;61.44;95982.66;5051170;28;20029;-58
2022/03/11 04:08:51;;;;;;;28.25;15.77;;;;;;;-4.64;61.33;95989.38;5051129;28;20423;-57
2022/03/11 04:11:17;;;;;;;23.65;13.20;;;;;;;-4.71;61.17;96006.09;5050816;28;20017;-58
2022/03/11 04:13:43;;;;;;;20.67;13.07;;;;;;;-4.71;60.11;96005.25;5050714;28;20047;-61
2022/03/11 04:16:08;;;;;;;18.80;11.88;;;;;;;-4.79;60.07;96000.13;5050495;28;20029;-59
2022/03/11 04:18:34;;;;;;;16.88;10.65;;;;;;;-4.83;60.32;96006.78;5050954;28;20074;-59
2022/03/11 04:21:00;;;;;;;23.15;12.88;;;;;;;-4.91;60.16;96013.38;5050968;28;20032;-60
2022/03/11 04:23:25;;;;;;;26.38;14.82;;;;;;;-5.25;60.86;95969.34;5051056;28;20436;-58
2022/03/11 04:25:51;;;;;;;25.95;16.58;;;;;;;-5.06;60.96;96018.22;5050669;28;20036;-58
2022/03/11 04:28:17;;;;;;;30.63;17.40;;;;;;;-5.15;60.72;96028.16;5050061;28;20068;-62
2022/03/11 04:30:42;;;;;;;31.05;18.75;;;;;;;-5.45;60.50;95967.38;5050948;28;20056;-59
2022/03/11 04:33:08;;;;;;;28.05;17.25;;;;;;;-5.18;60.99;96008.84;5050827;28;20029;-59
2022/03/11 04:35:33;;;;;;;27.45;17.80;;;;;;;-5.11;60.09;96020.69;5050707;28;20087;-60
2022/03/11 04:37:59;;;;;;;25.90;15.88;;;;;;;-5.03;60.28;96019.13;5050421;28;20079;-59
2022/03/11 04:40:24;;;;;;;24.60;15.30;;;;;;;-5.02;59.77;96015.78;5050174;28;20032;-61
2022/03/11 04:42:49;;;;;;;25.10;15.85;;;;;;;-5.26;60.02;95992.81;5050465;28;20033;-61
2022/03/11 04:45:15;;;;;;;28.23;15.30;;;;;;;-5.00;60.40;96019.16;5050117;28;20443;-57
2022/03/11 04:47:40;;;;;;;26.10;14.93;;;;;;;-4.88;60.20;96017.63;5050437;28;20075;-57
2022/03/11 04:50:06;;;;;;;23.65;14.38;;;;;;;-5.29;60.24;95962.59;5049077;28;20025;-63
2022/03/11 04:52:33;;;;;;;28.27;15.05;;;;;;;-5.53;59.67;95921.19;5050082;28;20445;-58
2022/03/11 04:54:58;;;;;;;19.83;14.10;;;;;;;-5.07;59.17;96014.00;5050300;28;20061;-59
2022/03/11 04:57:24;;;;;;;23.33;15.00;;;;;;;-5.07;59.33;96012.34;5050253;28;20100;-58
2022/03/11 04:59:49;;;;;;;27.85;15.65;;;;;;;-4.97;59.45;96018.34;5049887;28;20417;-63
2022/03/11 05:02:24;;;;;;;33.10;15.25;;;;;;;-4.93;59.71;96022.59;5048671;28;20033;-58
2022/03/11 05:04:49;;;;;;;25.85;16.83;;;;;;;-4.88;59.34;96020.16;5049825;28;20035;-59
2022/03/11 05:07:15;;;;;;;29.42;16.10;;;;;;;-4.88;59.76;96028.53;5050050;28;20100;-60
2022/03/11 05:09:40;;;;;;;25.73;14.70;;;;;;;-4.99;59.61;96000.69;5049926;28;20029;-62
2022/03/11 05:12:06;;;;;;;27.25;16.23;;;;;;;-4.89;59.35;96020.97;5049977;28;20025;-59
2022/03/11 05:14:35;;;;;;;23.58;15.60;;;;;;;-4.88;59.92;96037.75;5049176;28;20049;-59
2022/03/11 05:17:01;;;;;;;25.13;15.10;;;;;;;-4.85;59.95;96027.75;5050055;28;20059;-61
2022/03/11 05:19:26;;;;;;;24.45;15.02;;;;;;;-4.75;60.05;96032.06;5049707;28;20032;-63
2022/03/11 05:21:52;;;;;;;22.65;14.63;;;;;;;-4.81;59.83;96040.34;5034396;28;20030;-59
2022/03/11 05:24:18;;;;;;;30.48;15.30;;;;;;;-4.97;59.87;96025.88;5029449;28;20076;-59
2022/03/11 05:26:44;;;;;;;30.17;16.73;;;;;;;-4.92;59.19;96049.47;5029131;28;20045;-61
2022/03/11 05:29:10;;;;;;;26.17;14.52;;;;;;;-4.87;59.82;96047.84;5028338;28;20156;-58
2022/03/11 05:31:36;;;;;;;20.73;13.55;;;;;;;-5.09;59.28;95993.88;5030158;28;20034;-59
2022/03/11 05:34:01;;;;;;;19.95;12.70;;;;;;;-4.45;58.22;96051.72;5029483;28;20036;-59
2022/03/11 05:36:27;;;;;;;18.75;12.13;;;;;;;-4.20;57.59;96059.53;5029479;28;20036;-61
2022/03/11 05:38:52;;;;;;;17.83;11.05;;;;;;;-4.07;57.79;96060.53;5029005;28;20040;-59
2022/03/11 05:41:18;;;;;;;17.88;11.43;;;;;;;-4.65;57.45;95955.00;5029333;28;20036;-59
2022/03/11 05:43:44;;;;;;;20.23;11.75;;;;;;;-3.85;57.04;96063.25;5029266;28;20029;-60
2022/03/11 05:46:09;;;;;;;22.15;13.35;;;;;;;-3.68;56.49;96050.84;5029148;28;20108;-62
2022/03/11 05:48:35;;;;;;;18.20;13.30;;;;;;;-3.55;55.80;96042.53;5029537;28;20116;-66
2022/03/11 05:51:00;;;;;;;22.88;13.20;;;;;;;-3.54;55.06;96007.25;5028793;28;20051;-59
2022/03/11 05:53:26;;;;;;;26.92;13.70;;;;;;;-3.11;54.92;96043.72;5029161;28;20033;-66
2022/03/11 05:55:52;;;;;;;21.17;12.48;;;;;;;-2.90;53.96;96048.91;5038616;28;20036;-61
2022/03/11 05:58:17;;;;;;;19.63;12.75;;;;;;;-2.87;53.04;96026.19;5046067;28;20140;-60
2022/03/11 06:00:42;;;;;;;23.67;13.50;;;;;;;-2.63;52.51;96034.72;5041838;28;20497;-59
2022/03/11 06:03:08;;;;;;;19.08;11.98;;;;;;;-2.59;52.82;96042.31;5036650;28;20079;-59
2022/03/11 06:05:33;;;;;;;23.98;14.48;;;;;;;-2.68;52.70;96021.22;5038951;28;20025;-60
2022/03/11 06:07:59;;;;;;;17.83;11.55;;;;;;;-2.49;52.44;96049.91;5037643;28;20040;-59
2022/03/11 06:10:25;;;;;;;16.15;9.90;;;;;;;-2.26;51.40;96060.16;5034673;28;20381;-62
2022/03/11 06:12:51;;;;;;;16.08;9.98;;;;;;;-1.98;51.04;96058.53;5034628;28;20048;-58
2022/03/11 06:15:16;;;;;;;22.52;12.15;;;;;;;-2.01;50.42;96065.28;5034170;28;20041;-58
2022/03/11 06:17:42;;;;;;;21.50;13.07;;;;;;;-2.20;50.51;96027.28;5026664;28;20068;-63
2022/03/11 06:20:08;;;;;;;16.58;11.45;;;;;;;-1.72;49.56;96060.25;5027446;28;20029;-59
2022/03/11 06:22:36;;;;;;;19.42;13.00;;;;;;;-1.65;48.80;96059.44;5034075;28;20087;-58
2022/03/11 06:25:05;;;;;;;18.95;10.73;;;;;;;-2.00;49.88;96052.66;5030447;28;20067;-70
2022/03/11 06:27:30;;;;;;;20.23;11.02;;;;;;;-1.64;49.50;96075.47;5039901;28;20064;-63
2022/03/11 06:29:56;;;;;;;17.77;11.73;;;;;;;-1.61;48.89;96073.78;5034396;28;20091;-59
2022/03/11 06:32:22;;;;;;;15.48;9.15;;;;;;;-1.43;48.34;96056.94;5037412;28;20033;-62
2022/03/11 06:34:50;;;;;;;14.10;9.27;;;;;;;-1.02;48.01;96073.78;5024981;28;20034;-60
2022/03/11 06:37:16;;;;;;;15.52;10.40;;;;;;;-0.89;46.65;96047.59;5028533;28;20040;-60
2022/03/11 06:39:41;;;;;;;16.77;9.80;;;;;;;-1.16;46.79;96023.19;5027203;28;20028;-61
2022/03/11 06:42:07;;;;;;;17.73;10.90;;;;;;;-1.01;46.47;96068.72;5024778;28;20033;-59
2022/03/11 06:44:33;;;;;;;14.48;9.13;;;;;;;-1.19;46.71;96051.88;5024970;28;20075;-63
2022/03/11 06:46:58;;;;;;;19.70;11.07;;;;;;;-1.36;47.22;96081.38;5025118;28;20477;-59
2022/03/11 06:49:24;;;;;;;13.82;9.80;;;;;;;-1.82;47.93;96054.38;5024531;28;20032;-59
2022/03/11 06:51:49;;;;;;;17.48;10.32;;;;;;;-1.62;47.36;96086.41;5032559;28;20048;-63
2022/03/11 06:54:15;;;;;;;14.40;9.32;;;;;;;-1.92;48.83;96090.56;5044212;28;20037;-59
2022/03/11 06:56:40;;;;;;;14.60;9.27;;;;;;;-1.55;47.43;96075.47;5029776;28;20045;-60
2022/03/11 06:59:06;;;;;;;14.00;10.38;;;;;;;-1.43;46.80;96074.66;5042614;28;20103;-56
2022/03/11 07:01:32;;;;;;;15.23;10.43;;;;;;;-1.52;46.76;96083.91;5030695;28;20068;-65
2022/03/11 07:03:57;;;;;;;14.85;8.38;;;;;;;-1.76;46.87;96091.47;5022534;28;20556;-59
2022/03/11 07:06:23;;;;;;;13.23;8.90;;;;;;;-1.77;46.21;96095.69;5034991;28;20037;-61
2022/03/11 07:08:48;;;;;;;17.98;10.52;;;;;;;-1.60;46.52;96094.88;5024673;28;20040;-61
2022/03/11 07:11:14;;;;;;;16.85;11.05;;;;;;;-1.62;46.80;96068.72;5026631;28;20037;-62
2022/03/11 07:13:39;;;;;;;16.92;11.57;;;;;;;-1.26;46.49;96098.28;5023814;28;20607;-60
2022/03/11 07:16:06;;;;;;;20.45;13.48;;;;;;;-0.88;45.08;96084.75;5024475;28;20171;-64
2022/03/11 07:18:31;;;;;;;20.42;12.57;;;;;;;-0.48;44.30;96093.97;5027740;28;20440;-55
2022/03/11 07:20:57;;;;;;;20.08;13.20;;;;;;;-0.27;43.59;96098.97;5043398;28;20027;-58
2022/03/11 07:23:23;;;;;;;19.92;12.57;;;;;;;-0.24;43.20;96067.72;5051015;28;20048;-59
2022/03/11 07:25:50;;;;;;;14.07;9.13;;;;;;;-0.30;42.78;96078.69;5053008;28;20111;-61
2022/03/11 07:28:16;;;;;;;13.10;8.50;;;;;;;-1.11;43.07;95983.53;5051756;28;20045;-62
2022/03/11 07:30:41;;;;;;;12.23;8.32;;;;;;;-0.05;42.56;96087.06;5051682;28;20048;-63
2022/03/11 07:33:09;;;;;;;10.65;7.65;;;;;;;-0.42;42.07;96093.97;5051614;28;20029;-64
2022/03/11 07:35:35;;;;;;;14.07;9.48;;;;;;;0.08;41.64;96084.47;5050363;28;20025;-63
2022/03/11 07:38:00;;;;;;;10.93;7.75;;;;;;;0.35;40.93;96088.56;5051815;28;20433;-62
2022/03/11 07:40:26;;;;;;;11.48;7.65;;;;;;;0.33;40.75;96095.34;5051286;28;20035;-65
2022/03/11 07:42:51;;;;;;;11.70;7.70;;;;;;;0.09;41.12;96087.00;5051433;28;20029;-64
2022/03/11 07:45:17;;;;;;;12.07;8.07;;;;;;;-0.84;42.33;96029.88;5051410;28;20082;-68
2022/03/11 07:47:42;;;;;;;12.18;8.23;;;;;;;-0.86;43.44;96061.97;5051795;28;20124;-62
2022/03/11 07:50:09;;;;;;;12.35;8.48;;;;;;;-1.10;43.88;96083.91;5051244;28;20033;-63
2022/03/11 07:52:35;;;;;;;14.23;10.27;;;;;;;-1.33;44.30;96061.16;5050865;28;20422;-60
2022/03/11 07:55:01;;;;;;;12.48;8.68;;;;;;;-0.61;43.26;96093.16;5051455;28;20099;-62
2022/03/11 07:57:26;;;;;;;10.73;8.13;;;;;;;-0.35;42.45;96095.63;5051545;28;20136;-61
2022/03/11 07:59:54;;;;;;;13.48;8.40;;;;;;;-0.06;42.02;96094.69;5051903;28;20097;-61
2022/03/11 08:02:19;;;;;;;15.05;8.30;;;;;;;-0.08;41.90;96068.47;5051477;28;20389;-61
2022/03/11 08:04:45;;;;;;;13.52;8.43;;;;;;;-0.01;41.59;96091.25;5051863;28;20473;-59
2022/03/11 08:07:11;;;;;;;13.10;8.05;;;;;;;0.49;41.11;96096.94;5051647;28;20025;-66
2022/03/11 08:09:40;;;;;;;11.20;8.20;;;;;;;0.59;40.53;96052.03;5049639;28;20037;-65
2022/03/11 08:12:05;;;;;;;13.73;9.68;;;;;;;1.35;39.43;96082.69;5050817;28;20572;-61
2022/03/11 08:14:31;;;;;;;10.27;8.05;;;;;;;1.62;38.04;96081.56;5050348;28;20049;-63
2022/03/11 08:16:58;;;;;;;14.80;9.50;;;;;;;1.73;38.13;96072.97;5051218;28;20032;-65
2022/03/11 08:19:23;;;;;;;12.27;8.80;;;;;;;1.91;37.81;96064.28;5050542;28;20025;-64
2022/03/11 08:21:52;;;;;;;10.85;7.95;;;;;;;2.16;37.04;96069.91;5050875;28;20505;-61
2022/03/11 08:24:18;;;;;;;9.32;7.32;;;;;;;1.78;36.54;96061.06;5050734;28;20025;-62
2022/03/11 08:26:44;;;;;;;11.77;7.35;;;;;;;1.86;35.74;96066.88;5050219;28;20029;-63
2022/03/11 08:29:10;;;;;;;13.25;8.30;;;;;;;1.47;36.37;96074.94;5050724;28;20078;-59
2022/03/11 08:31:36;;;;;;;12.50;9.15;;;;;;;1.95;36.45;96038.81;5050294;28;20430;-61
2022/03/11 08:34:02;;;;;;;11.02;7.65;;;;;;;2.10;36.11;96077.59;5050147;28;20519;-63
2022/03/11 08:36:27;;;;;;;14.35;9.23;;;;;;;1.91;36.91;96065.13;5050265;28;20071;-66
2022/03/11 08:38:53;;;;;;;10.63;7.63;;;;;;;1.06;37.21;96038.06;5050012;28;20483;-67
2022/03/11 08:41:19;;;;;;;12.60;8.07;;;;;;;1.15;37.49;96066.78;5047717;28;20029;-68
2022/03/11 08:43:49;;;;;;;12.35;7.80;;;;;;;1.37;37.42;96075.06;5043652;28;20411;-64
2022/03/11 08:46:14;;;;;;;13.57;8.45;;;;;;;1.81;35.98;96068.66;5050062;28;20449;-62
2022/03/11 08:48:41;;;;;;;11.85;8.43;;;;;;;1.73;36.31;96065.34;5048343;28;20079;-63
2022/03/11 08:51:06;;;;;;;10.73;7.80;;;;;;;1.20;37.32;96070.97;5049950;28;20460;-59
2022/03/11 08:53:32;;;;;;;12.45;8.13;;;;;;;1.17;37.23;96040.50;5050141;28;20153;-58
2022/03/11 08:55:58;;;;;;;12.43;8.50;;;;;;;1.29;37.38;96060.72;5049830;28;20343;-62
2022/03/11 08:58:23;;;;;;;13.65;7.60;;;;;;;1.23;37.58;96063.34;5049827;28;20094;-61
2022/03/11 09:00:48;;;;;;;13.05;8.00;;;;;;;1.29;37.32;96055.63;5049821;28;20425;-60
2022/03/11 09:03:14;;;;;;;12.23;8.60;;;;;;;5.08;32.01;95988.59;5049413;28;20036;-61
2022/03/11 09:05:40;;;;;;;13.07;9.07;;;;;;;9.28;25.59;96019.00;5049791;28;20047;-60
2022/03/11 09:08:07;;;;;;;14.25;10.23;;;;;;;10.54;23.30;96021.19;5049568;28;20361;-61
2022/03/11 09:10:34;;;;;;;9.95;8.15;;;;;;;11.38;21.78;96018.84;5047615;28;20052;-61
2022/03/11 09:13:00;;;;;;;10.40;7.97;;;;;;;10.92;21.99;95924.78;5029599;28;20112;-63
2022/03/11 09:15:25;;;;;;;11.38;8.45;;;;;;;12.40;21.05;96021.34;5029228;28;20602;-62
2022/03/11 09:17:50;;;;;;;12.95;8.68;;;;;;;11.38;22.16;96018.03;5029999;28;20440;-63
2022/03/11 09:20:16;;;;;;;11.38;8.90;;;;;;;14.18;19.08;96013.78;5029476;28;20535;-63
2022/03/11 09:22:41;;;;;;;10.73;8.07;;;;;;;14.30;17.70;96008.66;5029336;28;20488;-62
2022/03/11 09:25:09;;;;;;;9.43;7.60;;;;;;;10.06;21.16;96025.91;5029563;28;20029;-66
2022/03/11 09:27:35;;;;;;;10.98;7.50;;;;;;;8.54;23.10;96002.22;5046481;28;20025;-67
2022/03/11 09:30:00;;;;;;;10.20;8.18;;;;;;;7.02;24.61;96007.69;5049483;28;20029;-63
2022/03/11 09:32:26;;;;;;;9.90;7.88;;;;;;;6.18;25.32;95994.09;5049456;28;20040;-66
2022/03/11 09:34:52;;;;;;;10.95;8.48;;;;;;;6.95;25.11;95976.28;5048942;28;20491;-59
2022/03/11 09:37:18;;;;;;;12.63;8.13;;;;;;;6.94;24.59;95954.13;5049258;28;20017;-63
2022/03/11 09:39:43;;;;;;;12.45;8.00;;;;;;;5.62;26.33;96035.75;5048955;28;20021;-61
2022/03/11 09:42:10;;;;;;;12.25;7.93;;;;;;;4.57;27.85;96051.16;5032955;28;20025;-62
2022/03/11 09:44:38;;;;;;;9.82;7.30;;;;;;;6.71;25.59;96036.91;5029320;28;20040;-64
2022/03/11 09:47:04;;;;;;;9.13;6.88;;;;;;;7.03;24.16;96030.72;5029220;28;20026;-68
2022/03/11 09:49:34;;;;;;;10.18;6.90;;;;;;;5.76;25.96;96020.03;5028609;28;20025;-62
2022/03/11 09:52:00;;;;;;;10.73;7.72;;;;;;;5.96;26.20;96022.03;5028675;28;20028;-70
2022/03/11 09:54:26;;;;;;;12.57;8.98;;;;;;;5.41;26.74;95955.31;5029379;28;20212;-62
2022/03/11 09:56:53;;;;;;;11.48;8.50;;;;;;;6.34;26.04;96025.22;5038562;28;20476;-62
2022/03/11 09:59:18;;;;;;;12.27;8.95;;;;;;;6.69;26.29;96023.28;5049346;28;20108;-65
2022/03/11 10:01:44;;;;;;;12.88;9.43;;;;;;;7.23;24.93;96022.38;5049190;28;20100;-59
2022/03/11 10:04:10;;;;;;;13.48;9.05;;;;;;;7.48;24.58;96013.84;5048340;28;20094;-61
2022/03/11 10:06:40;;;;;;;12.25;7.93;;;;;;;6.03;26.33;96001.38;5048316;28;20494;-59
2022/03/11 10:09:30;;;;;;;11.82;8.68;;;;;;;5.57;26.51;96012.84;5048580;28;20040;-57
2022/03/11 10:11:56;;;;;;;9.60;6.80;;;;;;;4.79;27.30;96006.34;5035223;28;20044;-62
2022/03/11 10:14:28;;;;;;;10.98;7.70;;;;;;;4.74;27.52;96027.78;5028103;28;20041;-62
2022/03/11 10:16:54;;;;;;;10.70;6.93;;;;;;;4.74;27.18;96030.34;5028421;28;20522;-68
2022/03/11 10:19:21;;;;;;;9.93;7.53;;;;;;;4.46;27.47;96025.88;5027286;28;20033;-64
2022/03/11 10:21:48;;;;;;;9.85;7.10;;;;;;;4.62;27.04;95998.22;5028498;28;20515;-67
2022/03/11 10:24:22;;;;;;;8.85;7.00;;;;;;;4.49;27.40;95997.66;5028775;28;20107;-60
2022/03/11 10:26:53;;;;;;;10.18;7.00;;;;;;;5.12;25.92;95951.84;5027648;28;20107;-71
2022/03/11 10:29:33;;;;;;;10.70;7.23;;;;;;;6.28;25.47;96017.69;5028537;28;20044;-71
2022/03/11 10:32:00;;;;;;;10.50;7.25;;;;;;;6.06;25.00;96008.09;5028225;28;20043;-65
2022/03/11 10:34:33;;;;;;;9.95;7.50;;;;;;;5.53;26.29;96016.38;5028221;28;20045;-63
2022/03/11 10:37:12;;;;;;;13.55;9.57;;;;;;;5.22;26.87;96029.16;5025907;28;20103;-60
2022/03/11 10:39:44;;;;;;;9.57;6.63;;;;;;;4.99;26.25;96017.78;5042434;28;20118;-64
2022/03/11 10:42:12;;;;;;;11.65;7.50;;;;;;;4.63;26.85;96024.63;5030258;28;20025;-70
2022/03/11 10:44:39;;;;;;;9.75;7.03;;;;;;;4.52;27.05;96029.97;5025144;28;20546;-63
2022/03/11 10:47:46;;;;;;;11.00;6.97;;;;;;;4.04;28.40;96010.59;5026223;28;20094;-64
2022/03/11 10:50:13;;;;;;;12.55;7.75;;;;;;;3.42;29.05;95980.41;5059581;28;20028;-63
2022/03/11 10:52:46;;;;;;;10.57;7.82;;;;;;;3.57;29.39;96008.16;5047667;28;20032;-61
2022/03/11 10:55:19;;;;;;;13.43;9.88;;;;;;;3.74;29.14;96014.63;5039981;28;20055;-67
2022/03/11 10:57:46;;;;;;;10.90;7.57;;;;;;;3.40;29.07;95972.78;5020656;28;20043;-63
2022/03/11 11:00:27;;;;;;;12.13;8.73;;;;;;;3.25;29.77;96014.72;5023983;28;20120;-70
2022/03/11 11:02:58;;;;;;;13.50;9.77;;;;;;;3.03;29.98;95998.94;5041502;28;20483;-65
2022/03/11 11:05:26;;;;;;;11.85;8.32;;;;;;;2.28;30.96;95967.94;5044825;28;20041;-70
2022/03/11 11:07:52;;;;;;;12.60;9.25;;;;;;;2.43;31.37;96011.81;5045121;28;20104;-68
2022/03/11 11:10:20;;;;;;;17.25;10.23;;;;;;;2.04;33.17;96014.94;5047682;28;20170;-66
2022/03/11 11:12:46;;;;;;;13.88;10.30;;;;;;;1.71;33.85;95955.19;5044638;28;20544;-63
2022/03/11 11:15:13;;;;;;;15.38;10.48;;;;;;;1.69;34.11;95997.56;5044609;28;20167;-61
2022/03/11 11:17:40;;;;;;;15.10;10.07;;;;;;;1.25;34.18;95969.31;5044777;28;20494;-63
2022/03/11 11:20:40;;;;;;;13.55;7.43;;;;;;;0.99;34.30;96005.97;5042225;28;20053;-61
2022/03/11 11:23:07;;;;;;;15.02;9.15;;;;;;;0.93;34.85;96000.13;5044934;28;20067;-61